Time;durP1;ratioP1;P1;durP2;ratioP2;P2;SDS_P1;SDS_P2;PMS_P1;PMS_P2;Temp;Humidity;BMP_temperature;BMP_pressure;BME280_temperature;BME280_humidity;BME280_pressure;Samples;Min_cycle;Max_cycle;Signal;HPM_P1;HPM_P2
2024/03/14 00:00:22;;;;;;;;;;;;;;;;;;1904020;28;7045;-65
2024/03/14 00:01:21;;;;;;;;;;;;;;;;;;1907167;28;7009;-65
2024/03/14 00:02:19;;;;;;;;;;;;;;;;;;1903970;28;7017;-65
2024/03/14 00:03:17;;;;;;;;;;;;;;;;;;1904690;28;7092;-65
2024/03/14 00:04:14;;;;;;;;;;;;;;;;;;1903923;28;7017;-65
2024/03/14 00:05:12;;;;;;;;;;;;;;;;;;1903624;28;7092;-65
2024/03/14 00:06:10;;;;;;;;;;;;;;;;;;1903842;28;7104;-65
2024/03/14 00:07:08;;;;;;;;;;;;;;;;;;1910330;28;7012;-64
2024/03/14 00:08:05;;;;;;;;;;;;;;;;;;1910075;28;7032;-65
2024/03/14 00:09:02;;;;;;;;;;;;;;;;;;1911290;28;7046;-65
2024/03/14 00:10:00;;;;;;;;;;;;;;;;;;1911779;28;8054;-65
2024/03/14 00:10:57;;;;;;;;;;;;;;;;;;1912340;28;7126;-64
2024/03/14 00:11:55;;;;;;;;;;;;;;;;;;1904774;28;7096;-65
2024/03/14 00:12:53;;;;;;;;;;;;;;;;;;1903012;28;7009;-66
2024/03/14 00:13:50;;;;;;;;;;;;;;;;;;1903457;28;7040;-65
2024/03/14 00:14:51;;;;;;;;;;;;;;;;;;1907885;28;8334;-64
2024/03/14 00:15:49;;;;;;;;;;;;;;;;;;1902575;28;8021;-65
2024/03/14 00:16:46;;;;;;;;;;;;;;;;;;1908436;28;7009;-65
2024/03/14 00:17:47;;;;;;;;;;;;;;;;;;1911380;28;7028;-65
2024/03/14 00:18:44;;;;;;;;;;;;;;;;;;1911190;28;8022;-65
2024/03/14 00:19:42;;;;;;;;;;;;;;;;;;1906688;28;7092;-65
2024/03/14 00:20:42;;;;;;;;;;;;;;;;;;1902611;28;7012;-66
2024/03/14 00:21:41;;;;;;;;;;;;;;;;;;1906684;28;7021;-65
2024/03/14 00:22:39;;;;;;;;;;;;;;;;;;1911144;28;7087;-65
2024/03/14 00:23:36;;;;;;;;;;;;;;;;;;1911464;28;7197;-65
2024/03/14 00:24:34;;;;;;;;;;;;;;;;;;1911855;28;8027;-65
2024/03/14 00:25:32;;;;;;;;;;;;;;;;;;1911543;28;7091;-65
2024/03/14 00:26:30;;;;;;;;;;;;;;;;;;1911777;28;7024;-64
2024/03/14 00:27:28;;;;;;;;;;;;;;;;;;1911660;28;7013;-65
2024/03/14 00:28:26;;;;;;;;;;;;;;;;;;1911418;28;7381;-64
2024/03/14 00:29:23;;;;;;;;;;;;;;;;;;1910686;28;7088;-64
2024/03/14 00:30:21;;;;;;;;;;;;;;;;;;1911501;28;7087;-65
2024/03/14 00:31:19;;;;;;;;;;;;;;;;;;1913487;28;7013;-65
2024/03/14 00:32:18;;;;;;;;;;;;;;;;;;1913631;28;7993;-65
2024/03/14 00:33:15;;;;;;;;;;;;;;;;;;1910205;28;7005;-64
2024/03/14 00:34:15;;;;;;;;;;;;;;;;;;1909333;28;7037;-64
2024/03/14 00:35:13;;;;;;;;;;;;;;;;;;1905128;28;7060;-65
2024/03/14 00:36:11;;;;;;;;;;;;;;;;;;1905622;28;8399;-65
2024/03/14 00:37:08;;;;;;;;;;;;;;;;;;1905434;28;8044;-65
2024/03/14 00:38:07;;;;;;;;;;;;;;;;;;1905223;28;7095;-64
2024/03/14 00:39:07;;;;;;;;;;;;;;;;;;1906020;28;7996;-64
2024/03/14 00:40:08;;;;;;;;;;;;;;;;;;1910481;28;7046;-65
2024/03/14 00:41:15;;;;;;;;;;;;;;;;;;1912773;28;8009;-64
2024/03/14 00:42:13;;;;;;;;;;;;;;;;;;1907036;28;7009;-65
2024/03/14 00:43:13;;;;;;;;;;;;;;;;;;1911813;28;7041;-64
2024/03/14 00:44:10;;;;;;;;;;;;;;;;;;1912529;28;7050;-65
2024/03/14 00:45:09;;;;;;;;;;;;;;;;;;1904458;28;7092;-65
2024/03/14 00:46:06;;;;;;;;;;;;;;;;;;1904297;28;8053;-64
2024/03/14 00:47:04;;;;;;;;;;;;;;;;;;1905788;28;7094;-66
2024/03/14 00:48:02;;;;;;;;;;;;;;;;;;1904842;28;7092;-65
2024/03/14 00:49:00;;;;;;;;;;;;;;;;;;1908034;28;7558;-65
2024/03/14 00:49:57;;;;;;;;;;;;;;;;;;1908681;28;7209;-65
2024/03/14 00:50:55;;;;;;;;;;;;;;;;;;1913091;28;8050;-65
2024/03/14 00:51:52;;;;;;;;;;;;;;;;;;1912179;28;7008;-64
2024/03/14 00:52:49;;;;;;;;;;;;;;;;;;1907264;28;7107;-65
2024/03/14 00:53:47;;;;;;;;;;;;;;;;;;1907512;28;9127;-65
2024/03/14 00:54:44;;;;;;;;;;;;;;;;;;1913690;28;7009;-65
2024/03/14 00:55:42;;;;;;;;;;;;;;;;;;1912225;28;7092;-66
2024/03/14 00:56:40;;;;;;;;;;;;;;;;;;1913243;28;7044;-64
2024/03/14 00:57:38;;;;;;;;;;;;;;;;;;1912935;28;7088;-65
2024/03/14 00:58:37;;;;;;;;;;;;;;;;;;1903656;28;7065;-65
2024/03/14 00:59:34;;;;;;;;;;;;;;;;;;1912138;28;7465;-64
2024/03/14 01:00:31;;;;;;;;;;;;;;;;;;1913339;28;7107;-65
2024/03/14 01:01:29;;;;;;;;;;;;;;;;;;1913441;28;7102;-65
2024/03/14 01:02:26;;;;;;;;;;;;;;;;;;1907400;28;7012;-65
2024/03/14 01:03:24;;;;;;;;;;;;;;;;;;1908766;28;8070;-65
2024/03/14 01:04:22;;;;;;;;;;;;;;;;;;1912812;28;7533;-65
2024/03/14 01:05:23;;;;;;;;;;;;;;;;;;1912475;28;7010;-65
2024/03/14 01:06:21;;;;;;;;;;;;;;;;;;1911846;28;7214;-65
2024/03/14 01:07:18;;;;;;;;;;;;;;;;;;1912705;28;7012;-65
2024/03/14 01:08:16;;;;;;;;;;;;;;;;;;1913116;28;7087;-65
2024/03/14 01:09:14;;;;;;;;;;;;;;;;;;1910009;28;7013;-65
2024/03/14 01:10:12;;;;;;;;;;;;;;;;;;1911896;28;7123;-65
2024/03/14 01:11:09;;;;;;;;;;;;;;;;;;1912554;28;8033;-65
2024/03/14 01:12:07;;;;;;;;;;;;;;;;;;1912263;28;8088;-65
2024/03/14 01:13:07;;;;;;;;;;;;;;;;;;1912404;28;7128;-65
2024/03/14 01:14:06;;;;;;;;;;;;;;;;;;1904240;28;8047;-66
2024/03/14 01:15:06;;;;;;;;;;;;;;;;;;1907901;28;8039;-65
2024/03/14 01:16:04;;;;;;;;;;;;;;;;;;1904938;28;7083;-65
2024/03/14 01:17:02;;;;;;;;;;;;;;;;;;1905887;28;7013;-66
2024/03/14 01:17:59;;;;;;;;;;;;;;;;;;1905543;28;7013;-65
2024/03/14 01:18:57;;;;;;;;;;;;;;;;;;1905195;28;7085;-65
2024/03/14 01:19:55;;;;;;;;;;;;;;;;;;1904535;28;7049;-64
2024/03/14 01:20:52;;;;;;;;;;;;;;;;;;1908286;28;7367;-65
2024/03/14 01:21:51;;;;;;;;;;;;;;;;;;1912753;28;7079;-65
2024/03/14 01:22:48;;;;;;;;;;;;;;;;;;1912303;28;8072;-64
2024/03/14 01:23:46;;;;;;;;;;;;;;;;;;1909002;28;7133;-65
2024/03/14 01:24:43;;;;;;;;;;;;;;;;;;1905218;28;7117;-65
2024/03/14 01:25:40;;;;;;;;;;;;;;;;;;1904655;28;7143;-65
2024/03/14 01:26:38;;;;;;;;;;;;;;;;;;1906515;28;8077;-65
2024/03/14 01:27:35;;;;;;;;;;;;;;;;;;1912456;28;7087;-64
2024/03/14 01:28:33;;;;;;;;;;;;;;;;;;1909180;28;7880;-66
2024/03/14 01:29:30;;;;;;;;;;;;;;;;;;1904649;28;7070;-65
2024/03/14 01:30:28;;;;;;;;;;;;;;;;;;1912858;28;7111;-64
2024/03/14 01:31:25;;;;;;;;;;;;;;;;;;1912564;28;7091;-65
2024/03/14 01:32:24;;;;;;;;;;;;;;;;;;1912227;28;7016;-64
2024/03/14 01:33:22;;;;;;;;;;;;;;;;;;1909887;28;8052;-66
2024/03/14 01:34:20;;;;;;;;;;;;;;;;;;1905577;28;7036;-66
2024/03/14 01:35:17;;;;;;;;;;;;;;;;;;1905579;28;7180;-64
2024/03/14 01:36:15;;;;;;;;;;;;;;;;;;1904885;28;7099;-64
2024/03/14 01:37:12;;;;;;;;;;;;;;;;;;1908609;28;7044;-64
2024/03/14 01:38:10;;;;;;;;;;;;;;;;;;1912625;28;7116;-65
2024/03/14 01:39:10;;;;;;;;;;;;;;;;;;1912183;28;7004;-65
2024/03/14 01:40:12;;;;;;;;;;;;;;;;;;1912328;28;7021;-65
2024/03/14 01:41:20;;;;;;;;;;;;;;;;;;1903961;28;7024;-65
2024/03/14 01:42:18;;;;;;;;;;;;;;;;;;1905918;28;7335;-65
2024/03/14 01:43:15;;;;;;;;;;;;;;;;;;1905211;28;7032;-65
2024/03/14 01:44:13;;;;;;;;;;;;;;;;;;1908136;28;7008;-64
2024/03/14 01:45:14;;;;;;;;;;;;;;;;;;1904569;28;8123;-64
2024/03/14 01:46:12;;;;;;;;;;;;;;;;;;1904621;28;7099;-65
2024/03/14 01:47:10;;;;;;;;;;;;;;;;;;1907077;28;8227;-65
2024/03/14 01:48:09;;;;;;;;;;;;;;;;;;1912250;28;7124;-64
2024/03/14 01:49:06;;;;;;;;;;;;;;;;;;1908985;28;7013;-65
2024/03/14 01:50:05;;;;;;;;;;;;;;;;;;1911415;28;7129;-65
2024/03/14 01:51:04;;;;;;;;;;;;;;;;;;1912011;28;7093;-64
2024/03/14 01:52:01;;;;;;;;;;;;;;;;;;1912770;28;7017;-65
2024/03/14 01:52:59;;;;;;;;;;;;;;;;;;1912837;28;7032;-66
2024/03/14 01:53:56;;;;;;;;;;;;;;;;;;1911666;28;8169;-65
2024/03/14 01:54:54;;;;;;;;;;;;;;;;;;1904760;28;8010;-65
2024/03/14 01:55:51;;;;;;;;;;;;;;;;;;1905230;28;7134;-64
2024/03/14 01:56:57;;;;;;;;;;;;;;;;;;1909423;28;7291;-65
2024/03/14 01:57:57;;;;;;;;;;;;;;;;;;1905106;28;7045;-64
2024/03/14 01:58:55;;;;;;;;;;;;;;;;;;1904749;28;8118;-64
2024/03/14 01:59:53;;;;;;;;;;;;;;;;;;1905477;28;7164;-64
2024/03/14 02:00:51;;;;;;;;;;;;;;;;;;1904090;28;7013;-65
2024/03/14 02:01:49;;;;;;;;;;;;;;;;;;1904913;28;7009;-64
2024/03/14 02:02:46;;;;;;;;;;;;;;;;;;1904362;28;7493;-64
2024/03/14 02:03:48;;;;;;;;;;;;;;;;;;1908477;28;7012;-64
2024/03/14 02:05:11;;;;;;;;;;;;;;;;;;1912237;28;7264;-64
2024/03/14 02:06:30;;;;;;;;;;;;;;;;;;1909281;28;7040;-64
2024/03/14 02:07:35;;;;;;;;;;;;;;;;;;1903881;28;8006;-64
2024/03/14 02:08:34;;;;;;;;;;;;;;;;;;1905004;28;7090;-65
2024/03/14 02:09:32;;;;;;;;;;;;;;;;;;1905340;28;7124;-65
2024/03/14 02:10:29;;;;;;;;;;;;;;;;;;1904697;28;7009;-64
2024/03/14 02:11:27;;;;;;;;;;;;;;;;;;1908335;28;7037;-64
2024/03/14 02:12:24;;;;;;;;;;;;;;;;;;1911878;28;7151;-63
2024/03/14 02:13:22;;;;;;;;;;;;;;;;;;1912138;28;7016;-65
2024/03/14 02:14:20;;;;;;;;;;;;;;;;;;1911975;28;7013;-65
2024/03/14 02:15:18;;;;;;;;;;;;;;;;;;1905494;28;7082;-64
2024/03/14 02:16:16;;;;;;;;;;;;;;;;;;1908683;28;7023;-64
2024/03/14 02:17:13;;;;;;;;;;;;;;;;;;1903652;28;7012;-65
2024/03/14 02:18:10;;;;;;;;;;;;;;;;;;1904871;28;7153;-64
2024/03/14 02:19:08;;;;;;;;;;;;;;;;;;1904769;28;7085;-65
2024/03/14 02:20:12;;;;;;;;;;;;;;;;;;1905319;28;8070;-64
2024/03/14 02:21:12;;;;;;;;;;;;;;;;;;1908354;28;7015;-64
2024/03/14 02:22:17;;;;;;;;;;;;;;;;;;1912607;28;7148;-65
2024/03/14 02:23:14;;;;;;;;;;;;;;;;;;1904347;28;7144;-64
2024/03/14 02:24:11;;;;;;;;;;;;;;;;;;1904509;28;7122;-65
2024/03/14 02:25:10;;;;;;;;;;;;;;;;;;1904262;28;7033;-65
2024/03/14 02:26:08;;;;;;;;;;;;;;;;;;1908092;28;8185;-65
2024/03/14 02:27:06;;;;;;;;;;;;;;;;;;1909967;28;7137;-63
2024/03/14 02:28:04;;;;;;;;;;;;;;;;;;1912129;28;7092;-65
2024/03/14 02:29:01;;;;;;;;;;;;;;;;;;1912717;28;7036;-65
2024/03/14 02:29:59;;;;;;;;;;;;;;;;;;1911173;28;7091;-65
2024/03/14 02:30:56;;;;;;;;;;;;;;;;;;1904432;28;7002;-65
2024/03/14 02:31:54;;;;;;;;;;;;;;;;;;1905101;28;7175;-65
2024/03/14 02:32:51;;;;;;;;;;;;;;;;;;1911621;28;7096;-64
2024/03/14 02:33:49;;;;;;;;;;;;;;;;;;1911812;28;7112;-65
2024/03/14 02:34:47;;;;;;;;;;;;;;;;;;1912601;28;7214;-65
2024/03/14 02:35:44;;;;;;;;;;;;;;;;;;1907153;28;7012;-64
2024/03/14 02:36:44;;;;;;;;;;;;;;;;;;1911551;28;7112;-65
2024/03/14 02:37:41;;;;;;;;;;;;;;;;;;1910164;28;7116;-64
2024/03/14 02:38:39;;;;;;;;;;;;;;;;;;1906856;28;7013;-65
2024/03/14 02:39:36;;;;;;;;;;;;;;;;;;1904505;28;7483;-63
2024/03/14 02:40:34;;;;;;;;;;;;;;;;;;1909201;28;7367;-65
2024/03/14 02:41:32;;;;;;;;;;;;;;;;;;1904903;28;7130;-64
2024/03/14 02:42:29;;;;;;;;;;;;;;;;;;1904376;28;7044;-65
2024/03/14 02:43:28;;;;;;;;;;;;;;;;;;1906327;28;7368;-64
2024/03/14 02:44:25;;;;;;;;;;;;;;;;;;1909427;28;7382;-64
2024/03/14 02:45:24;;;;;;;;;;;;;;;;;;1904742;28;8051;-64
2024/03/14 02:46:22;;;;;;;;;;;;;;;;;;1904890;28;7998;-65
2024/03/14 02:47:19;;;;;;;;;;;;;;;;;;1904286;28;7116;-64
2024/03/14 02:48:17;;;;;;;;;;;;;;;;;;1904487;28;7083;-64
2024/03/14 02:49:15;;;;;;;;;;;;;;;;;;1904709;28;7124;-63
2024/03/14 02:50:12;;;;;;;;;;;;;;;;;;1904278;28;7012;-63
2024/03/14 02:51:10;;;;;;;;;;;;;;;;;;1909369;28;7091;-65
2024/03/14 02:52:08;;;;;;;;;;;;;;;;;;1912136;28;8027;-65
2024/03/14 02:53:05;;;;;;;;;;;;;;;;;;1907656;28;7088;-64
2024/03/14 02:54:07;;;;;;;;;;;;;;;;;;1904431;28;7004;-64
2024/03/14 02:55:07;;;;;;;;;;;;;;;;;;1911072;28;7008;-64
2024/03/14 02:56:04;;;;;;;;;;;;;;;;;;1911238;28;7991;-64
2024/03/14 02:57:02;;;;;;;;;;;;;;;;;;1904216;28;7307;-65
2024/03/14 02:58:01;;;;;;;;;;;;;;;;;;1910252;28;7017;-65
2024/03/14 02:58:58;;;;;;;;;;;;;;;;;;1911292;28;9003;-65
2024/03/14 02:59:56;;;;;;;;;;;;;;;;;;1904182;28;7111;-64
2024/03/14 03:00:54;;;;;;;;;;;;;;;;;;1904763;28;7074;-65
2024/03/14 03:01:53;;;;;;;;;;;;;;;;;;1906247;28;7005;-65
2024/03/14 03:02:52;;;;;;;;;;;;;;;;;;1903906;28;7037;-64
2024/03/14 03:03:49;;;;;;;;;;;;;;;;;;1911097;28;7012;-65
2024/03/14 03:04:46;;;;;;;;;;;;;;;;;;1911487;28;7008;-64
2024/03/14 03:05:48;;;;;;;;;;;;;;;;;;1909027;28;7409;-64
2024/03/14 03:06:48;;;;;;;;;;;;;;;;;;1911693;28;7621;-65
2024/03/14 03:07:47;;;;;;;;;;;;;;;;;;1911711;28;7049;-63
2024/03/14 03:08:44;;;;;;;;;;;;;;;;;;1904382;28;7041;-65
2024/03/14 03:09:42;;;;;;;;;;;;;;;;;;1911430;28;7092;-64
2024/03/14 03:10:39;;;;;;;;;;;;;;;;;;1912010;28;7363;-64
2024/03/14 03:11:37;;;;;;;;;;;;;;;;;;1911751;28;7021;-66
2024/03/14 03:12:39;;;;;;;;;;;;;;;;;;1911246;28;7040;-64
2024/03/14 03:13:42;;;;;;;;;;;;;;;;;;1920870;28;6805;-66
2024/03/14 03:14:39;;;;;;;;;;;;;;;;;;1915646;28;7103;-66
2024/03/14 03:15:38;;;;;;;;;;;;;;;;;;1897277;28;7144;-65
2024/03/14 03:16:37;;;;;;;;;;;;;;;;;;1895285;28;7096;-66
2024/03/14 03:17:34;;;;;;;;;;;;;;;;;;1897086;28;8127;-67
2024/03/14 03:18:32;;;;;;;;;;;;;;;;;;1895370;28;7021;-65
2024/03/14 03:19:29;;;;;;;;;;;;;;;;;;1902839;28;7096;-65
2024/03/14 03:20:27;;;;;;;;;;;;;;;;;;1902784;28;7020;-65
2024/03/14 03:21:25;;;;;;;;;;;;;;;;;;1901155;28;8208;-66
2024/03/14 03:22:27;;;;;;;;;;;;;;;;;;1894158;28;7095;-66
2024/03/14 03:23:25;;;;;;;;;;;;;;;;;;1895595;28;7016;-65
2024/03/14 03:24:22;;;;;;;;;;;;;;;;;;1895519;28;7301;-65
2024/03/14 03:25:20;;;;;;;;;;;;;;;;;;1895108;28;7119;-65
2024/03/14 03:26:19;;;;;;;;;;;;;;;;;;1895335;28;7017;-66
2024/03/14 03:27:17;;;;;;;;;;;;;;;;;;1900489;28;7552;-66
2024/03/14 03:28:14;;;;;;;;;;;;;;;;;;1897089;28;7045;-65
2024/03/14 03:29:13;;;;;;;;;;;;;;;;;;1895272;28;7013;-65
2024/03/14 03:30:11;;;;;;;;;;;;;;;;;;1895713;28;7016;-65
2024/03/14 03:31:08;;;;;;;;;;;;;;;;;;1894802;28;7041;-65
2024/03/14 03:32:06;;;;;;;;;;;;;;;;;;1895230;28;7096;-65
2024/03/14 03:33:04;;;;;;;;;;;;;;;;;;1897155;28;7092;-66
2024/03/14 03:34:02;;;;;;;;;;;;;;;;;;1901847;28;7986;-65
2024/03/14 03:35:00;;;;;;;;;;;;;;;;;;1901553;28;7005;-66
2024/03/14 03:35:58;;;;;;;;;;;;;;;;;;1898836;28;7038;-65
2024/03/14 03:36:55;;;;;;;;;;;;;;;;;;1896456;28;7457;-65
2024/03/14 03:37:55;;;;;;;;;;;;;;;;;;1894439;28;8038;-66
2024/03/14 03:38:52;;;;;;;;;;;;;;;;;;1897032;28;7041;-66
2024/03/14 03:39:51;;;;;;;;;;;;;;;;;;1894988;28;7107;-66
2024/03/14 03:40:48;;;;;;;;;;;;;;;;;;1895518;28;7028;-65
2024/03/14 03:41:46;;;;;;;;;;;;;;;;;;1895378;28;7017;-65
2024/03/14 03:42:45;;;;;;;;;;;;;;;;;;1901999;28;7041;-65
2024/03/14 03:43:45;;;;;;;;;;;;;;;;;;1902550;28;7044;-66
2024/03/14 03:44:44;;;;;;;;;;;;;;;;;;1898434;28;7012;-66
2024/03/14 03:45:42;;;;;;;;;;;;;;;;;;1900138;28;7077;-66
2024/03/14 03:46:44;;;;;;;;;;;;;;;;;;1900502;28;7136;-66
2024/03/14 03:47:41;;;;;;;;;;;;;;;;;;1895384;28;7119;-66
2024/03/14 03:48:39;;;;;;;;;;;;;;;;;;1895429;28;9142;-65
2024/03/14 03:49:36;;;;;;;;;;;;;;;;;;1895097;28;7016;-66
2024/03/14 03:50:34;;;;;;;;;;;;;;;;;;1893669;28;7340;-65
2024/03/14 03:51:33;;;;;;;;;;;;;;;;;;1893896;28;7205;-65
2024/03/14 03:52:31;;;;;;;;;;;;;;;;;;1895899;28;7016;-65
2024/03/14 03:53:28;;;;;;;;;;;;;;;;;;1902871;28;7395;-65
2024/03/14 03:54:26;;;;;;;;;;;;;;;;;;1902471;28;7112;-66
2024/03/14 03:55:23;;;;;;;;;;;;;;;;;;1897054;28;7091;-66
2024/03/14 03:56:23;;;;;;;;;;;;;;;;;;1895287;28;8032;-65
2024/03/14 03:57:21;;;;;;;;;;;;;;;;;;1894024;28;7382;-64
2024/03/14 03:58:21;;;;;;;;;;;;;;;;;;1894744;28;7008;-66
2024/03/14 03:59:18;;;;;;;;;;;;;;;;;;1902113;28;7041;-66
2024/03/14 04:00:33;;;;;;;;;;;;;;;;;;1902510;28;8055;-65
2024/03/14 04:01:33;;;;;;;;;;;;;;;;;;1900134;28;8076;-64
2024/03/14 04:02:30;;;;;;;;;;;;;;;;;;1901954;28;7107;-66
2024/03/14 04:03:28;;;;;;;;;;;;;;;;;;1902701;28;7016;-65
2024/03/14 04:04:26;;;;;;;;;;;;;;;;;;1902311;28;7045;-66
2024/03/14 04:05:27;;;;;;;;;;;;;;;;;;1901721;28;7119;-66
2024/03/14 04:06:25;;;;;;;;;;;;;;;;;;1902039;28;7005;-65
2024/03/14 04:07:26;;;;;;;;;;;;;;;;;;1895699;28;7122;-66
2024/03/14 04:08:23;;;;;;;;;;;;;;;;;;1894709;28;7028;-66
2024/03/14 04:09:21;;;;;;;;;;;;;;;;;;1899891;28;7148;-63
2024/03/14 04:10:18;;;;;;;;;;;;;;;;;;1902017;28;7024;-66
2024/03/14 04:11:16;;;;;;;;;;;;;;;;;;1903155;28;7051;-65
2024/03/14 04:12:16;;;;;;;;;;;;;;;;;;1902351;28;7025;-63
2024/03/14 04:13:15;;;;;;;;;;;;;;;;;;1901962;28;7008;-66
2024/03/14 04:14:12;;;;;;;;;;;;;;;;;;1901463;28;7004;-64
2024/03/14 04:15:11;;;;;;;;;;;;;;;;;;1894464;28;7112;-65
2024/03/14 04:16:12;;;;;;;;;;;;;;;;;;1895332;28;7012;-66
2024/03/14 04:17:11;;;;;;;;;;;;;;;;;;1895381;28;7136;-65
2024/03/14 04:18:09;;;;;;;;;;;;;;;;;;1899451;28;7095;-65
2024/03/14 04:19:06;;;;;;;;;;;;;;;;;;1902786;28;7389;-65
2024/03/14 04:21:26;;;;;;;;;;;;;;;;;;1899089;28;7141;-65
2024/03/14 04:22:24;;;;;;;;;;;;;;;;;;1901193;28;7062;-66
2024/03/14 04:23:21;;;;;;;;;;;;;;;;;;1901961;28;7116;-65
2024/03/14 04:24:18;;;;;;;;;;;;;;;;;;1901766;28;7044;-67
2024/03/14 04:25:17;;;;;;;;;;;;;;;;;;1896433;28;7104;-66
2024/03/14 04:26:17;;;;;;;;;;;;;;;;;;1896643;28;7008;-66
2024/03/14 04:27:15;;;;;;;;;;;;;;;;;;1894096;28;7008;-65
2024/03/14 04:28:13;;;;;;;;;;;;;;;;;;1897211;28;7026;-64
2024/03/14 04:29:11;;;;;;;;;;;;;;;;;;1897629;28;7008;-66
2024/03/14 04:30:13;;;;;;;;;;;;;;;;;;1894988;28;7009;-66
2024/03/14 04:31:10;;;;;;;;;;;;;;;;;;1890292;28;7012;-65
2024/03/14 04:32:13;;;;;;;;;;;;;;;;;;1889583;28;7008;-66
2024/03/14 04:33:10;;;;;;;;;;;;;;;;;;1889587;28;7013;-66
2024/03/14 04:34:09;;;;;;;;;;;;;;;;;;1892759;28;7007;-65
2024/03/14 04:35:10;;;;;;;;;;;;;;;;;;1889867;28;7117;-65
2024/03/14 04:36:09;;;;;;;;;;;;;;;;;;1890273;28;7009;-66
2024/03/14 04:37:07;;;;;;;;;;;;;;;;;;1895120;28;7041;-66
2024/03/14 04:38:04;;;;;;;;;;;;;;;;;;1889192;28;7012;-65
2024/03/14 04:39:01;;;;;;;;;;;;;;;;;;1893818;28;8038;-66
2024/03/14 04:39:59;;;;;;;;;;;;;;;;;;1897582;28;7047;-66
2024/03/14 04:40:59;;;;;;;;;;;;;;;;;;1892799;28;7152;-65
2024/03/14 04:41:56;;;;;;;;;;;;;;;;;;1889134;28;7224;-65
2024/03/14 04:42:53;;;;;;;;;;;;;;;;;;1889787;28;7008;-66
2024/03/14 04:43:51;;;;;;;;;;;;;;;;;;1890087;28;7013;-65
2024/03/14 04:44:49;;;;;;;;;;;;;;;;;;1896379;28;7095;-66
2024/03/14 04:45:46;;;;;;;;;;;;;;;;;;1897526;28;7031;-66
2024/03/14 04:46:45;;;;;;;;;;;;;;;;;;1896974;28;7017;-65
2024/03/14 04:47:44;;;;;;;;;;;;;;;;;;1891418;28;8016;-66
2024/03/14 04:48:41;;;;;;;;;;;;;;;;;;1890156;28;7049;-65
2024/03/14 04:49:39;;;;;;;;;;;;;;;;;;1890032;28;7099;-65
2024/03/14 04:50:36;;;;;;;;;;;;;;;;;;1889791;28;8036;-65
2024/03/14 04:51:34;;;;;;;;;;;;;;;;;;1890240;28;7347;-66
2024/03/14 04:52:31;;;;;;;;;;;;;;;;;;1889627;28;7041;-65
2024/03/14 04:53:29;;;;;;;;;;;;;;;;;;1889875;28;7026;-65
2024/03/14 04:54:27;;;;;;;;;;;;;;;;;;1890264;28;7052;-66
2024/03/14 04:55:25;;;;;;;;;;;;;;;;;;1890390;28;7013;-66
2024/03/14 04:56:22;;;;;;;;;;;;;;;;;;1893067;28;7591;-65
2024/03/14 04:57:19;;;;;;;;;;;;;;;;;;1897253;28;7092;-66
2024/03/14 04:58:17;;;;;;;;;;;;;;;;;;1897304;28;7084;-66
2024/03/14 04:59:14;;;;;;;;;;;;;;;;;;1891023;28;7092;-65
2024/03/14 05:01:15;;;;;;;;;;;;;;;;;;1897830;28;7124;-65
2024/03/14 05:02:14;;;;;;;;;;;;;;;;;;1897222;28;7093;-66
2024/03/14 05:03:11;;;;;;;;;;;;;;;;;;1897400;28;7211;-66
2024/03/14 05:04:08;;;;;;;;;;;;;;;;;;1897168;28;7008;-66
2024/03/14 05:05:09;;;;;;;;;;;;;;;;;;1897696;28;7113;-66
2024/03/14 05:06:07;;;;;;;;;;;;;;;;;;1897403;28;7008;-65
2024/03/14 05:07:05;;;;;;;;;;;;;;;;;;1891662;28;7009;-66
2024/03/14 05:08:02;;;;;;;;;;;;;;;;;;1897242;28;7041;-65
2024/03/14 05:09:00;;;;;;;;;;;;;;;;;;1897332;28;7095;-65
2024/03/14 05:09:58;;;;;;;;;;;;;;;;;;1897705;28;7091;-65
2024/03/14 05:10:55;;;;;;;;;;;;;;;;;;1888864;28;7021;-65
2024/03/14 05:11:53;;;;;;;;;;;;;;;;;;1890123;28;7024;-65
2024/03/14 05:12:50;;;;;;;;;;;;;;;;;;1890049;28;7013;-66
2024/03/14 05:13:50;;;;;;;;;;;;;;;;;;1890627;28;7017;-65
2024/03/14 05:14:49;;;;;;;;;;;;;;;;;;1890496;28;7032;-65
2024/03/14 05:15:46;;;;;;;;;;;;;;;;;;1895164;28;7029;-65
2024/03/14 05:16:44;;;;;;;;;;;;;;;;;;1897091;28;7062;-66
2024/03/14 05:17:45;;;;;;;;;;;;;;;;;;1897413;28;7095;-65
2024/03/14 05:18:44;;;;;;;;;;;;;;;;;;1893481;28;9031;-66
2024/03/14 05:19:41;;;;;;;;;;;;;;;;;;1890362;28;7096;-66
2024/03/14 05:20:39;;;;;;;;;;;;;;;;;;1891878;28;7088;-65
2024/03/14 05:21:38;;;;;;;;;;;;;;;;;;1890435;28;7013;-65
2024/03/14 05:22:36;;;;;;;;;;;;;;;;;;1889701;28;7010;-66
2024/03/14 05:23:34;;;;;;;;;;;;;;;;;;1889933;28;7045;-66
2024/03/14 05:24:31;;;;;;;;;;;;;;;;;;1890057;28;7165;-66
2024/03/14 05:25:29;;;;;;;;;;;;;;;;;;1892355;28;7165;-65
2024/03/14 05:26:27;;;;;;;;;;;;;;;;;;1897260;28;7075;-65
2024/03/14 05:27:25;;;;;;;;;;;;;;;;;;1897250;28;7053;-66
2024/03/14 05:28:22;;;;;;;;;;;;;;;;;;1898019;28;7096;-66
2024/03/14 05:29:20;;;;;;;;;;;;;;;;;;1897606;28;7423;-66
2024/03/14 05:30:18;;;;;;;;;;;;;;;;;;1897475;28;8042;-65
2024/03/14 05:31:17;;;;;;;;;;;;;;;;;;1896918;28;7282;-66
2024/03/14 05:32:21;;;;;;;;;;;;;;;;;;1897136;28;7053;-66
2024/03/14 05:33:19;;;;;;;;;;;;;;;;;;1897431;28;7119;-65
2024/03/14 05:34:16;;;;;;;;;;;;;;;;;;1897835;28;7033;-66
2024/03/14 05:35:14;;;;;;;;;;;;;;;;;;1898027;28;7094;-66
2024/03/14 05:36:12;;;;;;;;;;;;;;;;;;1897505;28;7051;-65
2024/03/14 05:37:10;;;;;;;;;;;;;;;;;;1896753;28;7088;-66
2024/03/14 05:38:08;;;;;;;;;;;;;;;;;;1897128;28;7347;-66
2024/03/14 05:39:06;;;;;;;;;;;;;;;;;;1895286;28;7013;-65
2024/03/14 05:40:04;;;;;;;;;;;;;;;;;;1894734;28;7095;-66
2024/03/14 05:41:02;;;;;;;;;;;;;;;;;;1896953;28;7013;-65
2024/03/14 05:42:01;;;;;;;;;;;;;;;;;;1896838;28;7386;-65
2024/03/14 05:42:58;;;;;;;;;;;;;;;;;;1890877;28;7009;-66
2024/03/14 05:43:55;;;;;;;;;;;;;;;;;;1890061;28;8031;-65
2024/03/14 05:44:55;;;;;;;;;;;;;;;;;;1895217;28;7041;-66
2024/03/14 05:45:53;;;;;;;;;;;;;;;;;;1896777;28;7441;-66
2024/03/14 05:46:53;;;;;;;;;;;;;;;;;;1897123;28;7009;-66
2024/03/14 05:48:05;;;;;;;;;;;;;;;;;;1892126;28;7036;-65
2024/03/14 05:49:03;;;;;;;;;;;;;;;;;;1890109;28;7092;-65
2024/03/14 05:50:01;;;;;;;;;;;;;;;;;;1895802;28;7974;-65
2024/03/14 05:51:01;;;;;;;;;;;;;;;;;;1892874;28;7536;-66
2024/03/14 05:51:59;;;;;;;;;;;;;;;;;;1891341;28;7040;-65
2024/03/14 05:52:56;;;;;;;;;;;;;;;;;;1889821;28;7013;-66
2024/03/14 05:53:53;;;;;;;;;;;;;;;;;;1894068;28;7088;-65
2024/03/14 05:54:51;;;;;;;;;;;;;;;;;;1896961;28;7029;-65
2024/03/14 05:55:48;;;;;;;;;;;;;;;;;;1893286;28;7095;-65
2024/03/14 05:56:46;;;;;;;;;;;;;;;;;;1893134;28;7114;-66
2024/03/14 05:57:43;;;;;;;;;;;;;;;;;;1897272;28;7019;-65
2024/03/14 05:58:41;;;;;;;;;;;;;;;;;;1896823;28;7009;-63
2024/03/14 05:59:40;;;;;;;;;;;;;;;;;;1897399;28;7097;-66
2024/03/14 06:00:38;;;;;;;;;;;;;;;;;;1896921;28;8063;-66
2024/03/14 06:01:36;;;;;;;;;;;;;;;;;;1897479;28;7096;-65
2024/03/14 06:02:33;;;;;;;;;;;;;;;;;;1892795;28;7009;-65
2024/03/14 06:03:30;;;;;;;;;;;;;;;;;;1897173;28;7008;-66
2024/03/14 06:04:29;;;;;;;;;;;;;;;;;;1896921;28;8066;-65
2024/03/14 06:05:27;;;;;;;;;;;;;;;;;;1896184;28;7315;-65
2024/03/14 06:06:26;;;;;;;;;;;;;;;;;;1898804;28;7294;-65
2024/03/14 06:07:24;;;;;;;;;;;;;;;;;;1901188;28;7008;-65
2024/03/14 06:08:21;;;;;;;;;;;;;;;;;;1896840;28;7116;-65
2024/03/14 06:09:31;;;;;;;;;;;;;;;;;;1897266;28;7145;-66
2024/03/14 06:10:29;;;;;;;;;;;;;;;;;;1895853;28;7140;-64
2024/03/14 06:11:26;;;;;;;;;;;;;;;;;;1896695;28;7037;-65
2024/03/14 06:12:24;;;;;;;;;;;;;;;;;;1897138;28;7092;-65
2024/03/14 06:13:22;;;;;;;;;;;;;;;;;;1896860;28;7013;-65
2024/03/14 06:14:21;;;;;;;;;;;;;;;;;;1897181;28;8030;-66
2024/03/14 06:15:18;;;;;;;;;;;;;;;;;;1897416;28;7021;-65
2024/03/14 06:16:16;;;;;;;;;;;;;;;;;;1896974;28;7111;-65
2024/03/14 06:17:13;;;;;;;;;;;;;;;;;;1896796;28;7137;-65
2024/03/14 06:18:11;;;;;;;;;;;;;;;;;;1901943;28;7025;-65
2024/03/14 06:19:09;;;;;;;;;;;;;;;;;;1896688;28;7057;-64
2024/03/14 06:20:07;;;;;;;;;;;;;;;;;;1896535;28;7009;-65
2024/03/14 06:21:07;;;;;;;;;;;;;;;;;;1896787;28;7120;-65
2024/03/14 06:22:06;;;;;;;;;;;;;;;;;;1897010;28;7099;-65
2024/03/14 06:23:03;;;;;;;;;;;;;;;;;;1896107;28;7009;-66
2024/03/14 06:24:03;;;;;;;;;;;;;;;;;;1898490;28;7000;-65
2024/03/14 06:25:00;;;;;;;;;;;;;;;;;;1903881;28;7009;-65
2024/03/14 06:25:59;;;;;;;;;;;;;;;;;;1903884;28;7064;-64
2024/03/14 06:26:56;;;;;;;;;;;;;;;;;;1904139;28;7985;-66
2024/03/14 06:27:54;;;;;;;;;;;;;;;;;;1902942;28;7091;-65
2024/03/14 06:28:54;;;;;;;;;;;;;;;;;;1898313;28;8057;-65
2024/03/14 06:29:51;;;;;;;;;;;;;;;;;;1897194;28;7095;-65
2024/03/14 06:30:49;;;;;;;;;;;;;;;;;;1903720;28;7009;-64
2024/03/14 06:31:47;;;;;;;;;;;;;;;;;;1904043;28;8099;-65
2024/03/14 06:32:47;;;;;;;;;;;;;;;;;;1904611;28;7033;-64
2024/03/14 06:33:46;;;;;;;;;;;;;;;;;;1904605;28;7016;-65
2024/03/14 06:34:44;;;;;;;;;;;;;;;;;;1895926;28;7032;-65
2024/03/14 06:35:41;;;;;;;;;;;;;;;;;;1899303;28;7029;-66
2024/03/14 06:36:38;;;;;;;;;;;;;;;;;;1896642;28;7095;-65
2024/03/14 06:37:36;;;;;;;;;;;;;;;;;;1897262;28;7029;-65
2024/03/14 06:38:33;;;;;;;;;;;;;;;;;;1896828;28;7029;-65
2024/03/14 06:39:31;;;;;;;;;;;;;;;;;;1896612;28;7086;-64
2024/03/14 06:40:29;;;;;;;;;;;;;;;;;;1896806;28;7092;-65
2024/03/14 06:41:27;;;;;;;;;;;;;;;;;;1896622;28;7092;-65
2024/03/14 06:42:24;;;;;;;;;;;;;;;;;;1895138;28;7016;-66
2024/03/14 06:43:22;;;;;;;;;;;;;;;;;;1896744;28;7092;-65
2024/03/14 06:44:21;;;;;;;;;;;;;;;;;;1898134;28;7049;-64
2024/03/14 06:45:19;;;;;;;;;;;;;;;;;;1904242;28;7009;-65
2024/03/14 06:46:20;;;;;;;;;;;;;;;;;;1895854;28;7016;-65
2024/03/14 06:47:20;;;;;;;;;;;;;;;;;;1897152;28;7084;-65
2024/03/14 06:48:20;;;;;;;;;;;;;;;;;;1896732;28;7099;-65